Time;durP1;ratioP1;P1;durP2;ratioP2;P2;SDS_P1;SDS_P2;PMS_P1;PMS_P2;Temp;Humidity;BMP_temperature;BMP_pressure;BME280_temperature;BME280_humidity;BME280_pressure;Samples;Min_cycle;Max_cycle;Signal;HPM_P1;HPM_P2
2023/08/05 00:01:36;;;;;;;17.17;15.35;;;;;;;22.85;77.96;98515.00;4997439;28;102758;-64
2023/08/05 00:04:06;;;;;;;20.35;18.25;;;;;;;22.50;79.38;98526.63;4996516;28;104130;-64
2023/08/05 00:06:35;;;;;;;10.97;9.87;;;;;;;22.59;79.20;98527.34;4997670;28;104184;-64
2023/08/05 00:09:04;;;;;;;12.20;11.30;;;;;;;22.46;80.23;98518.09;4997984;28;103184;-59
2023/08/05 00:11:32;;;;;;;154.87;67.13;;;;;;;22.57;79.29;98518.63;4992267;28;103033;-60
2023/08/05 00:14:01;;;;;;;150.13;86.65;;;;;;;22.66;78.74;98528.25;5009115;27;102787;-59
2023/08/05 00:16:31;;;;;;;129.38;68.15;;;;;;;22.70;78.56;98535.78;4993003;28;104498;-59
2023/08/05 00:18:59;;;;;;;588.90;229.45;;;;;;;22.89;77.60;98529.75;4994562;28;103152;-60
2023/08/05 00:21:30;;;;;;;190.68;87.70;;;;;;;22.29;78.83;98521.19;4993164;28;102854;-60
2023/08/05 00:23:58;;;;;;;128.20;70.33;;;;;;;22.56;78.83;98516.94;4986630;28;102906;-60
2023/08/05 00:26:26;;;;;;;139.98;83.72;;;;;;;22.90;77.64;98519.81;4995370;28;103909;-60
2023/08/05 00:28:54;;;;;;;152.90;79.55;;;;;;;22.84;77.09;98536.75;4994048;28;103276;-60
2023/08/05 00:31:23;;;;;;;117.10;58.85;;;;;;;22.80;77.63;98530.06;4995233;28;102677;-60
2023/08/05 00:33:52;;;;;;;151.85;78.45;;;;;;;22.78;77.72;98540.19;4992399;28;103920;-59
2023/08/05 00:36:21;;;;;;;143.90;78.15;;;;;;;22.92;77.30;98537.44;4991360;28;104597;-60
2023/08/05 00:38:49;;;;;;;135.55;73.90;;;;;;;22.80;77.42;98536.28;4991721;28;103425;-59
2023/08/05 00:41:18;;;;;;;116.20;72.07;;;;;;;22.86;76.69;98529.28;4991989;28;102748;-59
2023/08/05 00:43:46;;;;;;;207.90;101.43;;;;;;;22.68;78.30;98516.28;4999780;27;104328;-60
2023/08/05 00:46:16;;;;;;;124.97;72.17;;;;;;;22.49;78.13;98515.03;4989477;28;104471;-59
2023/08/05 00:48:45;;;;;;;178.40;87.72;;;;;;;22.77;76.56;98516.97;4989878;28;103280;-59
2023/08/05 00:51:14;;;;;;;155.07;80.63;;;;;;;22.67;76.37;98511.94;4990317;28;102718;-60
2023/08/05 00:53:48;;;;;;;247.00;107.15;;;;;;;22.05;79.44;98497.31;4995887;28;102820;-59
2023/08/05 00:56:17;;;;;;;159.20;77.38;;;;;;;22.29;77.94;98499.66;4995695;28;103247;-59
2023/08/05 00:58:46;;;;;;;143.07;77.05;;;;;;;21.82;81.18;98494.72;4990676;28;104254;-59
2023/08/05 01:01:14;;;;;;;142.77;76.55;;;;;;;22.25;79.48;98488.47;4989301;28;102667;-59
2023/08/05 01:03:43;;;;;;;119.70;72.82;;;;;;;21.88;80.03;98486.78;4992188;28;104168;-59
2023/08/05 01:06:13;;;;;;;209.75;94.78;;;;;;;22.35;78.87;98483.59;4987510;28;103130;-60
2023/08/05 01:08:44;;;;;;;148.73;80.13;;;;;;;22.46;77.76;98487.63;4988276;28;103197;-60
2023/08/05 01:11:13;;;;;;;174.93;88.10;;;;;;;22.61;77.05;98492.97;4988795;28;102761;-60
2023/08/05 01:13:44;;;;;;;432.13;169.83;;;;;;;22.49;77.22;98490.78;4996029;28;103147;-59
2023/08/05 01:16:12;;;;;;;165.93;80.63;;;;;;;22.50;77.85;98503.25;4996400;28;103428;-60
2023/08/05 01:18:43;;;;;;;132.25;74.70;;;;;;;22.52;78.00;98505.72;4993973;28;103250;-60
2023/08/05 01:21:22;;;;;;;93.43;70.50;;;;;;;22.31;77.79;98505.72;4992707;28;104230;-60
2023/08/05 01:23:59;;;;;;;59.37;53.13;;;;;;;21.79;80.17;98506.66;4988693;28;102929;-60
2023/08/05 01:26:29;;;;;;;54.83;49.33;;;;;;;22.33;78.05;98500.97;5008752;27;104312;-60
2023/08/05 01:28:58;;;;;;;88.28;64.43;;;;;;;21.57;81.56;98506.75;5006675;27;104379;-60
2023/08/05 01:31:30;;;;;;;48.65;44.67;;;;;;;22.11;78.93;98501.94;5005789;27;102858;-60
2023/08/05 01:33:58;;;;;;;83.50;74.38;;;;;;;22.33;78.17;98503.66;4988255;28;102853;-60
2023/08/05 01:36:27;;;;;;;155.10;82.47;;;;;;;21.49;81.00;98501.47;4987544;28;103910;-60
2023/08/05 01:38:55;;;;;;;90.13;78.60;;;;;;;21.82;80.82;98500.09;4986763;28;104203;-60
2023/08/05 01:41:24;;;;;;;115.77;85.80;;;;;;;22.18;78.76;98495.59;4992105;28;103048;-60
2023/08/05 01:43:54;;;;;;;124.00;78.57;;;;;;;21.95;78.66;98497.63;4989438;28;103085;-60
2023/08/05 01:46:22;;;;;;;129.93;85.68;;;;;;;21.70;80.03;98505.09;4987927;28;104426;-65
2023/08/05 01:48:50;;;;;;;140.40;96.57;;;;;;;22.07;78.55;98512.25;4996700;28;104398;-65
2023/08/05 01:51:19;;;;;;;448.88;216.23;;;;;;;22.10;78.90;98519.09;4995837;28;102748;-65
2023/08/05 01:53:47;;;;;;;145.77;97.60;;;;;;;22.10;78.20;98509.16;4994328;28;104202;-65
2023/08/05 01:56:15;;;;;;;149.52;94.57;;;;;;;22.09;77.87;98512.06;4987379;28;104399;-65
2023/08/05 01:58:44;;;;;;;157.68;101.97;;;;;;;21.72;80.58;98504.91;5008200;27;104097;-65
2023/08/05 02:01:13;;;;;;;129.68;91.13;;;;;;;21.08;83.29;98501.88;4997016;28;102705;-65
2023/08/05 02:03:42;;;;;;;91.57;78.72;;;;;;;21.75;80.56;98499.19;4994008;28;102847;-65
2023/08/05 02:06:14;;;;;;;105.72;84.00;;;;;;;22.07;78.69;98488.03;4991798;28;103501;-60
2023/08/05 02:08:42;;;;;;;80.68;72.45;;;;;;;22.39;77.28;98489.44;4990511;28;104180;-65
2023/08/05 02:11:10;;;;;;;194.63;102.13;;;;;;;21.83;79.11;98493.69;4996154;28;102668;-65
2023/08/05 02:13:39;;;;;;;84.18;75.05;;;;;;;22.18;77.56;98476.78;4996338;28;103949;-65
2023/08/05 02:16:12;;;;;;;106.75;87.60;;;;;;;22.08;77.36;98484.31;4993913;28;103931;-65
2023/08/05 02:18:41;;;;;;;131.50;93.78;;;;;;;22.00;78.43;98484.44;4995603;28;103224;-65
2023/08/05 02:30:23;;;;;;;92.50;83.20;;;;;;;22.13;79.08;98473.81;4994235;28;103156;-64
2023/08/05 02:44:55;;;;;;;770.83;712.83;;;;;;;21.73;79.17;98434.81;4991950;28;104138;-64
2023/08/05 02:47:23;;;;;;;284.00;261.83;;;;;;;21.58;78.15;98433.19;4989484;28;103518;-65
2023/08/05 02:49:51;;;;;;;1152.27;302.67;;;;;;;21.81;78.49;98437.41;5005417;27;103170;-65
2023/08/05 02:52:19;;;;;;;7.40;6.68;;;;;;;21.85;77.91;98438.72;4999243;28;102698;-65
2023/08/05 02:54:49;;;;;;;8.63;7.88;;;;;;;21.88;77.33;98443.75;4994672;28;103308;-65
2023/08/05 02:57:17;;;;;;;7.03;6.50;;;;;;;21.71;77.58;98444.94;4995375;28;103534;-65
2023/08/05 02:59:46;;;;;;;6.60;6.10;;;;;;;21.71;79.06;98460.22;4998680;28;102704;-65
2023/08/05 03:02:16;;;;;;;5.00;4.60;;;;;;;22.00;77.25;98465.63;4996127;28;103867;-60
2023/08/05 03:04:45;;;;;;;5.93;5.38;;;;;;;20.88;82.18;98464.94;4995964;28;104281;-61
2023/08/05 03:07:14;;;;;;;9.50;8.80;;;;;;;21.09;81.63;98457.88;4996164;28;103256;-60
2023/08/05 03:09:48;;;;;;;9.25;8.55;;;;;;;21.41;80.43;98461.25;4991795;28;103233;-60
2023/08/05 03:12:18;;;;;;;7.45;6.80;;;;;;;21.47;79.96;98468.59;5008845;27;104134;-60
2023/08/05 03:14:46;;;;;;;6.10;5.35;;;;;;;21.61;79.74;98475.81;4999110;28;103752;-60
2023/08/05 03:17:16;;;;;;;6.47;5.97;;;;;;;21.54;79.67;98478.41;4996386;28;103584;-60
2023/08/05 03:19:45;;;;;;;7.68;7.18;;;;;;;21.70;78.61;98494.34;4989614;28;102726;-60
2023/08/05 03:22:14;;;;;;;6.73;6.03;;;;;;;21.29;80.79;98498.50;4995450;28;103029;-60
2023/08/05 03:24:45;;;;;;;6.47;5.88;;;;;;;21.34;80.60;98506.84;4992244;28;104914;-60
2023/08/05 03:27:13;;;;;;;6.90;6.20;;;;;;;21.06;81.08;98509.25;4998000;28;103510;-60
2023/08/05 03:29:46;;;;;;;5.20;4.90;;;;;;;21.79;79.23;98509.38;5007687;27;102680;-60
2023/08/05 03:32:18;;;;;;;6.37;5.77;;;;;;;21.64;78.88;98511.19;4996424;28;104434;-60
2023/08/05 03:34:50;;;;;;;6.53;6.00;;;;;;;21.11;81.54;98514.94;5011004;27;104208;-65
2023/08/05 03:37:19;;;;;;;1414.97;376.83;;;;;;;21.46;80.92;98508.06;5011052;27;103363;-65
2023/08/05 03:39:49;;;;;;;1999.90;409.10;;;;;;;21.33;81.12;98505.19;5008848;27;104265;-60
2023/08/05 03:42:17;;;;;;;1985.97;339.17;;;;;;;21.44;80.73;98503.88;5010285;27;102877;-60
2023/08/05 03:44:46;;;;;;;1999.90;484.65;;;;;;;21.58;80.35;98505.75;4994035;28;104166;-64
2023/08/05 03:47:16;;;;;;;1972.88;323.55;;;;;;;21.43;79.94;98511.13;4999391;28;103866;-65
2023/08/05 03:49:45;;;;;;;1999.90;409.08;;;;;;;21.67;78.32;98518.91;4996556;28;103250;-65
2023/08/05 03:52:14;;;;;;;1292.28;344.50;;;;;;;21.23;80.82;98534.97;4993593;28;102715;-65
2023/08/05 03:54:42;;;;;;;789.20;266.05;;;;;;;21.44;81.08;98533.44;4997445;28;103642;-65
2023/08/05 03:57:11;;;;;;;523.78;328.92;;;;;;;21.58;79.25;98532.63;5000357;28;103389;-65
2023/08/05 03:59:41;;;;;;;473.77;191.63;;;;;;;21.50;79.85;98530.84;4991960;28;103137;-65
2023/08/05 04:02:11;;;;;;;389.45;156.55;;;;;;;21.57;79.17;98530.94;4996782;28;102700;-65
2023/08/05 04:04:42;;;;;;;420.87;162.93;;;;;;;21.82;78.30;98535.03;4998130;28;104027;-65
2023/08/05 04:07:12;;;;;;;906.43;289.27;;;;;;;21.74;78.68;98527.91;4994613;28;103153;-65
2023/08/05 04:09:42;;;;;;;407.35;152.55;;;;;;;21.90;77.63;98538.50;4994095;28;102703;-65
2023/08/05 04:12:13;;;;;;;313.23;138.10;;;;;;;21.46;79.17;98539.47;4998376;28;103792;-65
2023/08/05 04:14:43;;;;;;;351.20;147.98;;;;;;;21.82;78.05;98545.78;5000089;28;104909;-65
2023/08/05 04:17:14;;;;;;;234.63;117.75;;;;;;;21.53;79.06;98538.53;5012660;27;104445;-64
2023/08/05 04:19:47;;;;;;;256.10;118.75;;;;;;;21.66;78.44;98524.47;4995173;28;102764;-61
2023/08/05 04:22:20;;;;;;;323.02;144.63;;;;;;;21.59;78.72;98534.28;4988159;28;104207;-60
2023/08/05 04:24:51;;;;;;;307.37;129.57;;;;;;;22.05;77.12;98534.97;4984815;28;104568;-60
2023/08/05 04:27:21;;;;;;;357.37;137.13;;;;;;;21.58;78.01;98532.63;4993584;28;103064;-60
2023/08/05 04:29:51;;;;;;;436.15;144.38;;;;;;;21.87;77.71;98532.66;4992732;28;103199;-61
2023/08/05 04:32:23;;;;;;;570.20;221.88;;;;;;;21.87;77.27;98524.59;4994457;28;103934;-61
2023/08/05 04:34:54;;;;;;;394.33;167.50;;;;;;;21.48;78.76;98526.66;4993705;28;103013;-60
2023/08/05 04:37:24;;;;;;;302.67;120.30;;;;;;;22.03;77.09;98537.84;4992951;28;103269;-61
2023/08/05 04:39:53;;;;;;;413.25;167.25;;;;;;;22.12;76.15;98531.31;4989774;28;102735;-61
2023/08/05 04:42:23;;;;;;;337.42;139.60;;;;;;;21.79;77.69;98530.88;4992359;28;103523;-61
2023/08/05 04:44:54;;;;;;;308.48;138.32;;;;;;;21.57;78.99;98542.53;4992063;28;103044;-61
2023/08/05 04:47:24;;;;;;;278.63;132.15;;;;;;;20.83;81.98;98548.69;4993792;28;103219;-61
2023/08/05 04:49:54;;;;;;;280.30;129.50;;;;;;;21.34;79.78;98553.34;4996538;28;102621;-60
2023/08/05 04:52:24;;;;;;;291.65;128.93;;;;;;;21.44;79.06;98547.72;4994586;28;102842;-60
2023/08/05 05:03:46;;;;;;;339.15;147.73;;;;;;;21.87;77.81;98549.63;4975760;28;103091;-60
2023/08/05 05:06:17;;;;;;;278.50;134.40;;;;;;;22.07;77.07;98544.50;4989177;28;104441;-60
2023/08/05 05:08:46;;;;;;;252.07;137.45;;;;;;;21.78;77.91;98545.31;5008776;27;104017;-60
2023/08/05 05:11:16;;;;;;;333.83;135.63;;;;;;;21.91;77.22;98550.09;5001802;27;104325;-61
2023/08/05 05:13:50;;;;;;;407.13;191.95;;;;;;;21.98;76.89;98551.00;4991025;28;102716;-63
2023/08/05 05:16:20;;;;;;;500.98;187.02;;;;;;;22.15;76.42;98547.09;4993337;28;102883;-63
2023/08/05 05:18:49;;;;;;;472.63;182.93;;;;;;;21.86;77.53;98553.31;4997359;28;103080;-63
2023/08/05 05:21:20;;;;;;;426.60;172.80;;;;;;;21.90;77.18;98548.41;4997163;28;103210;-64
2023/08/05 05:23:50;;;;;;;431.00;171.07;;;;;;;21.73;77.75;98554.97;4998208;28;102942;-61
2023/08/05 05:26:20;;;;;;;356.93;174.97;;;;;;;21.77;78.02;98558.97;4995152;28;102903;-60
2023/08/05 05:28:49;;;;;;;328.23;149.38;;;;;;;21.70;78.26;98553.47;4993471;28;102979;-63
2023/08/05 05:31:18;;;;;;;340.33;153.10;;;;;;;21.42;79.83;98559.69;4996384;28;103012;-63
2023/08/05 05:33:51;;;;;;;338.38;140.90;;;;;;;21.84;78.39;98565.25;4994019;28;102868;-63
2023/08/05 05:36:24;;;;;;;376.42;151.73;;;;;;;21.71;77.62;98559.69;4995184;28;102771;-63
2023/08/05 05:38:53;;;;;;;353.48;148.95;;;;;;;21.74;77.90;98553.94;4995050;28;103195;-63
2023/08/05 05:41:23;;;;;;;327.65;142.23;;;;;;;21.49;79.76;98555.22;4998503;28;103366;-61
2023/08/05 05:43:53;;;;;;;301.70;137.80;;;;;;;21.74;78.55;98553.94;4999403;28;104424;-61
2023/08/05 05:46:22;;;;;;;347.17;143.57;;;;;;;21.78;77.24;98555.28;5008595;27;104458;-63
2023/08/05 05:48:52;;;;;;;249.52;123.00;;;;;;;21.55;78.65;98554.50;4993381;28;103083;-63
2023/08/05 05:51:23;;;;;;;257.33;121.70;;;;;;;21.41;79.84;98558.00;4994244;28;103192;-61
2023/08/05 05:53:55;;;;;;;258.63;131.83;;;;;;;21.60;78.47;98542.19;4992790;28;104050;-60
2023/08/05 05:56:24;;;;;;;288.90;137.93;;;;;;;21.90;77.53;98543.03;4991479;28;102812;-61
2023/08/05 05:58:55;;;;;;;377.40;144.13;;;;;;;21.92;78.25;98541.03;4995773;28;102988;-61
2023/08/05 06:01:28;;;;;;;254.93;119.40;;;;;;;21.77;78.04;98535.59;5008439;27;103940;-60
2023/08/05 06:03:58;;;;;;;280.83;120.45;;;;;;;21.79;77.37;98530.03;4984147;28;103264;-60
2023/08/05 06:06:30;;;;;;;290.13;139.37;;;;;;;22.06;76.37;98529.41;4988232;28;104094;-61
2023/08/05 06:09:02;;;;;;;752.63;354.75;;;;;;;21.86;76.37;98536.34;4993313;28;104998;-61
2023/08/05 06:11:34;;;;;;;1078.50;415.10;;;;;;;21.61;78.46;98532.28;4990692;28;102984;-61
2023/08/05 06:14:06;;;;;;;867.00;396.17;;;;;;;21.89;78.46;98525.25;5011290;27;102889;-63
2023/08/05 06:16:38;;;;;;;982.30;416.80;;;;;;;22.68;75.46;98531.63;4990936;28;103641;-63
2023/08/05 06:19:10;;;;;;;1031.97;398.70;;;;;;;21.70;79.69;98526.59;4993830;28;103290;-63
2023/08/05 06:21:44;;;;;;;1149.75;419.08;;;;;;;20.65;82.37;98524.03;4994906;28;103177;-63
2023/08/05 06:24:16;;;;;;;948.15;410.58;;;;;;;21.37;79.55;98520.75;4996517;28;102737;-63
2023/08/05 06:26:47;;;;;;;1025.30;439.25;;;;;;;22.54;75.61;98517.13;4997048;28;102996;-63
2023/08/05 06:29:19;;;;;;;1168.67;412.77;;;;;;;22.04;77.32;98522.53;5001567;28;103171;-63
2023/08/05 06:31:51;;;;;;;953.30;439.48;;;;;;;22.62;75.25;98525.09;4999323;28;103015;-63
2023/08/05 06:34:23;;;;;;;1116.00;395.27;;;;;;;22.88;73.39;98532.63;5013143;27;103045;-63
2023/08/05 06:36:58;;;;;;;983.30;375.95;;;;;;;22.77;73.49;98538.53;4995309;28;103518;-63
2023/08/05 06:39:33;;;;;;;825.03;381.02;;;;;;;22.80;73.25;98535.44;5002203;28;103070;-63
2023/08/05 06:42:05;;;;;;;1177.75;412.38;;;;;;;22.78;74.54;98529.44;5000842;28;103184;-61
2023/08/05 06:44:41;;;;;;;804.03;402.40;;;;;;;22.96;73.25;98525.25;4997784;28;102671;-60
2023/08/05 06:51:50;;;;;;;974.30;385.00;;;;;;;23.15;73.13;98515.69;4996823;28;103962;-63
2023/08/05 07:04:05;;;;;;;1311.70;432.07;;;;;;;21.48;77.16;98515.91;4985743;28;103238;-61
2023/08/05 07:06:38;;;;;;;1083.25;401.30;;;;;;;21.23;79.48;98513.50;4991847;28;103116;-61
2023/08/05 07:09:10;;;;;;;1149.40;462.45;;;;;;;22.68;75.47;98510.06;4993201;28;103064;-61
2023/08/05 07:11:40;;;;;;;958.95;381.45;;;;;;;23.22;72.41;98503.09;4995630;28;102734;-61
2023/08/05 10:49:21;;;;;;;1999.90;535.50;;;;;;;29.79;43.10;98373.47;4935091;28;103132;-77
2023/08/05 10:51:49;;;;;;;1999.90;561.25;;;;;;;31.23;43.15;98370.13;4938279;28;102732;-76
2023/08/05 10:54:21;;;;;;;1999.90;505.33;;;;;;;31.69;41.38;98362.59;4936390;28;103384;-76
2023/08/05 11:00:41;;;;;;;1999.90;518.70;;;;;;;30.69;44.27;98349.06;4936545;28;103977;-79
2023/08/05 11:03:32;;;;;;;1999.90;545.08;;;;;;;28.14;46.68;98355.66;4935243;28;103636;-79
2023/08/05 11:06:05;;;;;;;1999.90;540.90;;;;;;;28.21;47.65;98350.13;4942563;28;103974;-80
2023/08/05 11:08:35;;;;;;;1999.90;475.47;;;;;;;27.48;48.02;98355.66;4936791;28;104513;-80
2023/08/05 11:11:04;;;;;;;1999.90;511.65;;;;;;;29.54;43.75;98343.84;4927629;28;104011;-80
2023/08/05 11:13:34;;;;;;;1999.90;505.43;;;;;;;27.24;47.00;98353.81;4936669;28;103070;-74
2023/08/05 11:16:07;;;;;;;1999.90;480.73;;;;;;;26.55;48.46;98354.84;4938022;28;102830;-76
2023/08/05 11:18:35;;;;;;;1999.90;494.50;;;;;;;27.37;46.44;98348.25;4930175;28;103243;-76
2023/08/05 11:21:11;;;;;;;1999.90;526.87;;;;;;;26.82;48.46;98334.63;4920213;28;103219;-81
2023/08/05 11:23:45;;;;;;;1999.90;573.50;;;;;;;29.09;44.86;98321.91;4921527;28;103005;-80
2023/08/05 11:32:04;;;;;;;1999.90;539.22;;;;;;;29.77;43.39;98313.84;3262468;26;104864;-58
2023/08/05 11:34:34;;;;;;;1999.90;562.40;;;;;;;28.17;46.56;98319.91;4897926;28;102691;-57
2023/08/05 12:04:09;;;;;;;1999.90;496.30;;;;;;;32.58;38.72;98263.53;4907879;28;103077;-65
2023/08/05 12:06:37;;;;;;;1999.90;492.47;;;;;;;31.78;39.46;98260.84;4909632;28;102957;-60
2023/08/05 12:09:08;;;;;;;1999.90;460.00;;;;;;;32.16;39.63;98251.69;4918251;28;103357;-63
2023/08/05 12:11:45;;;;;;;1999.90;500.67;;;;;;;31.35;39.84;98256.22;4921839;28;103373;-62
2023/08/05 12:14:13;;;;;;;1999.90;466.25;;;;;;;31.32;40.07;98251.28;4918654;28;105087;-62
2023/08/05 12:16:42;;;;;;;1999.90;519.73;;;;;;;31.35;41.30;98250.78;4920369;28;102910;-62
2023/08/05 12:19:11;;;;;;;1999.90;499.90;;;;;;;31.10;40.59;98252.34;4919137;28;105019;-60
2023/08/05 12:21:39;;;;;;;1999.90;491.10;;;;;;;31.40;41.46;98241.81;4918231;28;104245;-61
2023/08/05 12:24:07;;;;;;;1999.90;491.20;;;;;;;30.26;40.45;98241.50;4920843;28;103378;-60
2023/08/05 12:26:35;;;;;;;1999.90;533.03;;;;;;;30.43;41.47;98242.34;4919945;28;102948;-58
2023/08/05 12:29:03;;;;;;;1999.90;504.25;;;;;;;31.26;41.27;98246.84;4899334;28;103774;-59
2023/08/05 12:31:32;;;;;;;1999.90;470.42;;;;;;;31.29;38.55;98238.16;4918424;28;104192;-60
2023/08/05 12:34:00;;;;;;;1999.90;483.48;;;;;;;31.13;38.98;98240.94;4916441;28;103238;-63
2023/08/05 12:36:30;;;;;;;1999.90;477.58;;;;;;;31.22;40.14;98234.78;4919190;28;103364;-63
2023/08/05 12:38:58;;;;;;;1999.90;491.27;;;;;;;30.71;40.86;98240.59;4912094;28;103049;-61
2023/08/05 12:41:25;;;;;;;1999.90;467.33;;;;;;;30.87;40.25;98232.38;4903551;28;103668;-64
2023/08/05 12:43:54;;;;;;;1999.90;481.00;;;;;;;31.13;39.12;98230.81;4918474;28;103286;-61
2023/08/05 12:46:22;;;;;;;1999.90;445.83;;;;;;;29.70;42.60;98242.38;4921786;28;102614;-62
2023/08/05 12:48:50;;;;;;;1999.90;484.23;;;;;;;29.11;42.51;98237.38;4921609;28;104204;-64
2023/08/05 12:51:18;;;;;;;1999.90;528.80;;;;;;;28.90;44.72;98230.66;4919843;28;103337;-63
2023/08/05 12:53:47;;;;;;;1999.90;486.42;;;;;;;27.90;44.42;98234.47;4922148;28;103389;-62
2023/08/05 12:56:15;;;;;;;1999.90;508.27;;;;;;;27.74;45.35;98235.94;4919085;28;102752;-62
2023/08/05 12:58:46;;;;;;;1999.90;489.90;;;;;;;28.34;44.70;98225.81;4912691;28;103868;-64
2023/08/05 13:01:14;;;;;;;1999.90;498.70;;;;;;;28.92;44.35;98227.69;4900927;28;104283;-61
2023/08/05 13:03:44;;;;;;;1999.90;553.33;;;;;;;30.05;42.12;98220.44;4899561;28;103369;-60
2023/08/05 13:06:12;;;;;;;1999.90;506.58;;;;;;;29.53;42.41;98218.94;4915638;28;102917;-60
2023/08/05 13:08:40;;;;;;;1999.90;509.08;;;;;;;28.98;44.34;98222.13;4918802;28;103411;-60
2023/08/05 13:11:09;;;;;;;1999.90;549.83;;;;;;;28.88;45.26;98221.94;4920820;28;104055;-60
2023/08/05 13:13:37;;;;;;;1999.90;514.20;;;;;;;30.08;42.99;98221.84;4918985;28;103436;-60
2023/08/05 13:16:05;;;;;;;1999.90;480.65;;;;;;;30.43;41.59;98212.38;4907213;28;103141;-58
2023/08/05 13:18:34;;;;;;;1999.90;514.53;;;;;;;30.70;41.58;98214.41;4902925;28;103051;-58
2023/08/05 13:21:02;;;;;;;1999.90;536.35;;;;;;;30.67;41.11;98206.72;4904378;28;103517;-58
2023/08/05 13:23:30;;;;;;;1999.90;517.80;;;;;;;30.97;40.65;98205.28;4907837;28;103295;-60
2023/08/05 13:25:57;;;;;;;1999.90;531.03;;;;;;;31.21;40.51;98194.94;4905260;28;103247;-60
2023/08/05 13:28:27;;;;;;;234.82;31.55;;;;;;;31.12;40.11;98199.19;4896269;28;104109;-58
2023/08/05 13:31:01;;;;;;;969.50;253.35;;;;;;;30.56;41.39;98185.84;4915825;28;103368;-58
2023/08/05 13:33:29;;;;;;;1026.45;262.90;;;;;;;31.17;40.45;98174.69;4909007;28;103261;-58
2023/08/05 13:35:57;;;;;;;519.03;159.27;;;;;;;31.21;40.29;98177.75;4915693;28;104139;-60
2023/08/05 13:38:25;;;;;;;1129.22;258.05;;;;;;;30.51;41.91;98183.91;4894924;28;103074;-59
2023/08/05 13:40:53;;;;;;;550.35;126.20;;;;;;;30.70;41.79;98181.69;4907741;28;104051;-58
2023/08/05 13:43:22;;;;;;;685.90;152.68;;;;;;;30.01;43.21;98178.44;4909342;28;103286;-58
2023/08/05 13:45:53;;;;;;;675.42;130.00;;;;;;;30.81;40.88;98175.31;4900004;28;102748;-60
2023/08/05 13:48:22;;;;;;;498.63;113.70;;;;;;;30.61;41.07;98170.41;4911335;28;103893;-58
2023/08/05 13:51:00;;;;;;;393.92;103.00;;;;;;;29.63;42.39;98167.41;4901604;28;103564;-58
2023/08/05 13:53:28;;;;;;;647.38;139.32;;;;;;;30.66;41.25;98158.72;4910080;28;103285;-60
2023/08/05 13:55:57;;;;;;;696.08;133.57;;;;;;;30.20;42.96;98163.50;4902015;28;102829;-61
2023/08/05 13:58:26;;;;;;;417.70;101.05;;;;;;;29.39;43.80;98163.16;4905004;28;104223;-60
2023/08/05 14:00:59;;;;;;;861.55;188.10;;;;;;;29.73;43.16;98156.69;4906640;28;104427;-59
2023/08/05 14:03:27;;;;;;;588.05;170.90;;;;;;;29.78;43.19;98151.34;4905098;28;103311;-60
2023/08/05 14:05:57;;;;;;;754.17;169.05;;;;;;;30.71;42.59;98153.38;4897842;28;103027;-58
2023/08/05 14:08:27;;;;;;;607.58;137.45;;;;;;;29.87;43.10;98147.16;4907935;28;104260;-59
2023/08/05 14:10:55;;;;;;;45.83;33.10;;;;;;;30.65;41.88;98148.94;4910370;28;103999;-58
2023/08/05 14:13:23;;;;;;;455.08;94.93;;;;;;;30.70;42.04;98143.53;4909608;28;103264;-58
2023/08/05 14:15:52;;;;;;;547.23;125.43;;;;;;;30.63;41.74;98143.72;4911299;28;103011;-58
2023/08/05 14:18:21;;;;;;;461.98;117.70;;;;;;;30.13;43.46;98151.94;4910565;28;104092;-58
2023/08/05 14:20:50;;;;;;;323.60;104.57;;;;;;;29.48;44.74;98137.19;4910803;28;104133;-58
2023/08/05 14:23:18;;;;;;;293.88;84.25;;;;;;;29.37;43.93;98132.63;4910792;28;103108;-58
2023/08/05 14:25:46;;;;;;;495.67;128.73;;;;;;;29.15;44.95;98133.31;4892174;28;102886;-58
2023/08/05 14:28:14;;;;;;;373.35;99.13;;;;;;;29.55;45.14;98137.88;4901272;28;104213;-58
2023/08/05 14:30:42;;;;;;;547.88;118.15;;;;;;;29.86;43.88;98131.91;4893501;28;105406;-58
2023/08/05 14:33:10;;;;;;;468.73;117.07;;;;;;;30.29;44.13;98129.31;4890571;28;103184;-58
2023/08/05 14:35:39;;;;;;;418.98;106.85;;;;;;;30.69;42.06;98114.63;4905855;28;103183;-58
2023/08/05 14:38:10;;;;;;;328.73;101.55;;;;;;;30.64;42.30;98117.28;4909993;28;103202;-58
2023/08/05 14:40:38;;;;;;;529.47;121.00;;;;;;;30.32;42.87;98119.81;4908983;28;103832;-58
2023/08/05 14:43:06;;;;;;;405.90;116.15;;;;;;;30.19;42.40;98115.53;4908886;28;103363;-58
2023/08/05 14:45:39;;;;;;;494.33;117.00;;;;;;;30.50;42.48;98105.09;4909915;28;102689;-58
2023/08/05 14:48:07;;;;;;;492.70;123.53;;;;;;;30.75;40.91;98099.97;4913216;28;102744;-58
2023/08/05 14:50:40;;;;;;;367.67;96.93;;;;;;;29.84;42.60;98099.47;4912901;28;103525;-58
2023/08/05 14:53:07;;;;;;;387.83;94.85;;;;;;;30.51;43.83;98095.88;4903847;28;103233;-58
2023/08/05 14:55:38;;;;;;;463.80;113.57;;;;;;;30.39;42.40;98094.06;4909737;28;103749;-58
2023/08/05 14:58:05;;;;;;;509.50;126.90;;;;;;;30.25;42.22;98092.75;4908918;28;102778;-58
2023/08/05 15:00:34;;;;;;;437.70;108.60;;;;;;;29.13;41.94;98100.09;4912809;28;103856;-58
2023/08/05 15:03:03;;;;;;;312.52;79.82;;;;;;;29.23;43.59;98105.75;4911987;28;103263;-58
2023/08/05 15:05:31;;;;;;;473.88;113.85;;;;;;;30.91;40.41;98086.25;4892450;28;102839;-58
2023/08/05 15:08:01;;;;;;;341.20;98.07;;;;;;;30.70;40.11;98078.09;4912130;28;103038;-58
2023/08/05 15:10:29;;;;;;;509.35;130.55;;;;;;;30.84;41.96;98073.91;4909410;28;104435;-58
2023/08/05 15:12:57;;;;;;;515.95;108.70;;;;;;;31.90;39.93;98070.34;4909673;28;103399;-58
2023/08/05 15:15:26;;;;;;;505.83;104.17;;;;;;;31.10;39.11;98066.88;4885511;28;103487;-58
2023/08/05 15:17:54;;;;;;;509.05;116.07;;;;;;;30.64;38.90;98073.66;4903939;28;103219;-58
2023/08/05 15:20:23;;;;;;;273.20;84.35;;;;;;;29.38;40.32;98063.56;4908482;28;103486;-58
2023/08/05 15:22:55;;;;;;;340.00;90.82;;;;;;;29.35;43.94;98064.88;4910732;28;104096;-58
2023/08/05 15:25:24;;;;;;;415.25;102.10;;;;;;;30.50;41.68;98056.88;4892735;28;102968;-58
2023/08/05 15:27:52;;;;;;;435.25;112.60;;;;;;;30.85;41.04;98059.22;4908043;28;103115;-59
2023/08/05 15:30:20;;;;;;;348.23;87.13;;;;;;;31.29;39.43;98049.06;4909369;28;104238;-58
2023/08/05 15:32:48;;;;;;;298.75;85.20;;;;;;;31.13;39.36;98050.78;4912816;28;104496;-58
2023/08/05 15:35:16;;;;;;;391.15;96.47;;;;;;;30.08;40.47;98059.28;4911479;28;102693;-58
2023/08/05 15:37:44;;;;;;;421.30;104.80;;;;;;;30.67;39.18;98045.91;4909509;28;104099;-58
2023/08/05 15:40:14;;;;;;;523.47;124.07;;;;;;;31.40;38.03;98046.16;4900959;28;104150;-58
2023/08/05 15:42:43;;;;;;;406.92;103.40;;;;;;;31.58;37.02;98052.34;4905940;28;103130;-58
2023/08/05 15:45:14;;;;;;;397.93;94.20;;;;;;;30.94;38.10;98038.59;4885142;28;103067;-58
2023/08/05 15:47:42;;;;;;;434.93;100.00;;;;;;;31.53;38.16;98048.47;4908482;28;103978;-56
2023/08/05 15:50:17;;;;;;;416.10;99.63;;;;;;;31.76;38.41;98046.47;4910103;28;105688;-57
2023/08/05 15:52:48;;;;;;;381.00;87.20;;;;;;;29.48;41.05;98041.97;4910275;28;103170;-57
2023/08/05 15:55:18;;;;;;;372.88;98.75;;;;;;;30.21;40.36;98026.22;4891543;28;103059;-58
2023/08/05 15:57:48;;;;;;;429.63;99.03;;;;;;;30.35;38.53;98027.50;4910703;28;102900;-57
2023/08/05 16:00:16;;;;;;;335.45;85.25;;;;;;;30.34;38.70;98020.41;4913441;28;104184;-57
2023/08/05 16:02:44;;;;;;;436.20;104.20;;;;;;;30.11;39.61;98015.22;4912251;28;103341;-57
2023/08/05 16:05:12;;;;;;;356.15;100.45;;;;;;;29.66;40.65;98011.78;4882994;28;102967;-58